Terminal Aerodrome Forecast
Issued by NWS

Current Version | Previous Version | Graphics & Text | Print | Product List | Glossary On
Versions: 1 2 3 4 5 6 7 8 9 10 11 12 13 14 15 16
000
FTUS41 KPBZ 231000 AAA
TAFMGW
TAF AMD
KMGW 231009Z 2310/2406 00000KT P6SM VCSH BKN060
     FM231400 22006KT P6SM BKN050
     FM231900 24010KT 5SM -SHRA VCTS BKN035CB
     FM240300 27010KT P6SM BKN035=

USA.gov is the U.S. government's official web portal to all federal, state and local government web resources and services.